Resums METAR propers

 

KSJC - San Jose, California, USA
Distància des de l'estació: NE 14km
Actualització: 23/10/2018 05:53 UTC
Alguns núvols
Alguns núvols
 Vent del N
Vent: N 6 km/h
Temperatura: 13°C
Rosada: 11°C
Humitat: 88%
Baròmetre: 1015.2 hPa
Nuvolositat: Alguns núvols
Visibilitat: 16 km
Detalls nuvolositat: Alguns núvols 457 m
2018/10/23 05:53 KSJC 230553Z 01003KT 10SM FEW015 13/11 A2998 RMK AO2 SLP152 T01330106 10183 20128 51006
KNUQ - Moffett Nas/Mtn, California, USA
Distància des de l'estació: N 14km
Actualització: 23/10/2018 04:56 UTC
Seré
Seré
 Vent del calm
Vent: Calma
Temperatura: 13°C
Rosada: 10°C
Humitat: 82%
Baròmetre: 1015.2 hPa
Nuvolositat: Seré
Visibilitat: 16 km
2018/10/23 04:56 KNUQ 230456Z 00000KT 10SM CLR 13/10 A2998 RMK AO2 SLP156 T01280100
 
KPAO - Palo Alto, California, USA
Distància des de l'estació: NNO 23km
Actualització: 23/10/2018 03:47 UTC
NO actualitzat
Seré
Seré
 Vent del NO
Vent: NO 19 km/h
Temperatura: 14°C
Rosada: 10°C
Humitat: 77%
Baròmetre: 1014.9 hPa
Nuvolositat: Seré
Visibilitat: 16 km
2018/10/23 03:47 KPAO 230347Z 31010KT 10SM SKC 14/10 A2997
KRHV - San Jose/Reid, California, USA
Distància des de l'estació: ENE 19km
Actualització: 23/10/2018 04:50 UTC
Seré
Seré
 Vent del calm
Vent: Calma
Temperatura: 13°C
Rosada: 11°C
Humitat: 88%
Baròmetre: 1014.6 hPa
Nuvolositat: Seré
Visibilitat: 16 km
2018/10/23 04:50 KRHV 230450Z 00000KT 10SM SKC 13/11 A2996 RMK LAST
 
KOAK - Oakland, California, USA
Distància des de l'estació: NNO 50km
Actualització: 23/10/2018 05:53 UTC
Alguns núvols
Alguns núvols
 Vent del ONO
Vent: ONO 15 km/h
Temperatura: 13°C
Rosada: 10°C
Humitat: 82%
Baròmetre: 1015.6 hPa
Nuvolositat: Alguns núvols
Visibilitat: 16 km
Detalls nuvolositat: Alguns núvols 305 m
2018/10/23 05:53 KOAK 230553Z 30008KT 10SM FEW010 13/10 A2999 RMK AO2 SLP154 T01330100 10167 20133 53007
KSQL - San Carlos Airpo, California, USA
Distància des de l'estació: NO 34km
Actualització: 23/10/2018 05:55 UTC
Molt cobert
Molt cobert
 Vent del calm
Vent: Calma
Temperatura: 13°C
Rosada: 10°C
Humitat: 82%
Baròmetre: 1015.2 hPa
Nuvolositat: Molt cobert
Visibilitat: 16 km
Detalls nuvolositat: Molt cobert 610 m
2018/10/23 05:55 KSQL 230555Z AUTO 00000KT 10SM BKN020 13/10 A2998 RMK AO2
 
KSFO - San Francisco, California, USA
Distància des de l'estació: NO 49km
Actualització: 23/10/2018 04:56 UTC
Alguns núvols
Alguns núvols
 Vent del O
Vent: O 13 km/h
Temperatura: 13°C
Rosada: 9°C
Humitat: 77%
Baròmetre: 1014.9 hPa
Nuvolositat: Alguns núvols
Visibilitat: 16 km
Detalls nuvolositat: Alguns núvols 457 m
2018/10/23 04:56 KSFO 230456Z 27007KT 10SM FEW015 13/09 A2997 RMK AO2 SLP147 T01330089
KE16 - San Martin, California, USA
Distància des de l'estació: ESE 43km
Actualització: 23/10/2018 05:30 UTC
Alguns núvols
Alguns núvols
 Vent del calm
Vent: Calma
Temperatura: 12°C
Rosada: 9°C
Humitat: 82%
Baròmetre: 1015.9 hPa
Nuvolositat: Alguns núvols
Visibilitat: 16 km
Detalls nuvolositat: Alguns núvols 640 m
Alguns núvols 1067 m
2018/10/23 05:30 KE16 230530Z AUTO 00000KT 10SM FEW021 FEW035 12/09 A3000 RMK AO2
 
KWVI - Watsonville, California, USA
Distància des de l'estació: SSE 44km
Actualització: 23/10/2018 05:53 UTC
Seré
Seré
 Vent del N
Vent: N 6 km/h
Temperatura: 12°C
Rosada: 11°C
Humitat: 94%
Baròmetre: 1015.2 hPa
Nuvolositat: Seré
Visibilitat: 16 km
2018/10/23 05:53 KWVI 230553Z AUTO 01003KT 10SM CLR 12/11 A2998 RMK AO2 SLP152 T01170106 10161 20117 51004
KHAF - Half Moon Bay, California, USA
Distància des de l'estació: ONO 50km
Actualització: 03/10/2018 20:40 UTC
NO actualitzat
Haze, Molt cobert
Haze, Molt cobert
 Vent del S
Vent: S 7 km/h
Temperatura: 18°C
Rosada: 15°C
Humitat: 83%
Baròmetre: 1013.2 hPa
Resum: Haze
Nuvolositat: Molt cobert
Visibilitat: 6 km
Detalls nuvolositat: Alguns núvols 640 m
Molt cobert 914 m
2018/10/03 20:40 KHAF 032040Z AUTO 19004KT 4SM HZ FEW021 BKN030 18/15 A2992 RMK AO2
 
KHWD - Hayward, California, USA
Distància des de l'estació: N 44km
Actualització: 23/10/2018 05:26 UTC
Parcialment cobert
Parcialment cobert
 Vent del NNO
Vent: NNO 6 km/h
Temperatura: 13°C
Rosada: 9°C
Humitat: 77%
Baròmetre: 1015.2 hPa
Nuvolositat: Parcialment cobert
Visibilitat: 16 km
Detalls nuvolositat: Parcialment cobert 488 m
2018/10/23 05:26 KHWD 230526Z AUTO 34003KT 10SM SCT016 13/09 A2998 RMK AO2 T01330094
KLVK - Livermore, California, USA
Distància des de l'estació: NNE 51km
Actualització: 23/10/2018 05:53 UTC
Seré
Seré
 Vent del ONO
Vent: ONO 6 km/h
Temperatura: 11°C
Rosada: 9°C
Humitat: 88%
Baròmetre: 1014.9 hPa
Nuvolositat: Seré
Visibilitat: 16 km
2018/10/23 05:53 KLVK 230553Z AUTO 29003KT 10SM CLR 11/09 A2997 RMK AO2 SLP147 T01110089